sensor_id;sensor_type;location;lat;lon;timestamp;P1;durP1;ratioP1;P2;durP2;ratioP2
7045;SDS011;3564;53.326;10.356;2023-03-20T00:02:10;51.43;;;28.33;;
7045;SDS011;3564;53.326;10.356;2023-03-20T00:04:43;50.70;;;28.67;;
7045;SDS011;3564;53.326;10.356;2023-03-20T00:07:08;51.37;;;28.43;;
7045;SDS011;3564;53.326;10.356;2023-03-20T00:09:36;52.53;;;29.37;;
7045;SDS011;3564;53.326;10.356;2023-03-20T00:12:02;53.17;;;29.17;;
7045;SDS011;3564;53.326;10.356;2023-03-20T00:14:29;52.27;;;28.10;;
7045;SDS011;3564;53.326;10.356;2023-03-20T00:16:55;48.77;;;27.83;;
7045;SDS011;3564;53.326;10.356;2023-03-20T00:19:22;51.83;;;28.37;;
7045;SDS011;3564;53.326;10.356;2023-03-20T00:21:50;46.07;;;26.63;;
7045;SDS011;3564;53.326;10.356;2023-03-20T00:24:17;47.83;;;26.13;;
7045;SDS011;3564;53.326;10.356;2023-03-20T00:26:43;48.90;;;26.67;;
7045;SDS011;3564;53.326;10.356;2023-03-20T00:29:32;48.30;;;27.27;;
7045;SDS011;3564;53.326;10.356;2023-03-20T00:31:58;46.43;;;25.83;;
7045;SDS011;3564;53.326;10.356;2023-03-20T00:34:25;45.30;;;25.00;;
7045;SDS011;3564;53.326;10.356;2023-03-20T00:36:53;40.67;;;24.53;;
7045;SDS011;3564;53.326;10.356;2023-03-20T00:39:20;41.03;;;24.93;;
7045;SDS011;3564;53.326;10.356;2023-03-20T00:41:55;42.87;;;24.73;;
7045;SDS011;3564;53.326;10.356;2023-03-20T00:44:27;43.00;;;24.70;;
7045;SDS011;3564;53.326;10.356;2023-03-20T00:47:04;43.57;;;24.50;;
7045;SDS011;3564;53.326;10.356;2023-03-20T00:49:36;40.03;;;23.60;;
7045;SDS011;3564;53.326;10.356;2023-03-20T00:52:03;39.37;;;22.83;;
7045;SDS011;3564;53.326;10.356;2023-03-20T00:54:30;39.07;;;22.97;;
7045;SDS011;3564;53.326;10.356;2023-03-20T00:59:25;38.10;;;22.63;;
7045;SDS011;3564;53.326;10.356;2023-03-20T01:01:57;35.13;;;22.53;;
7045;SDS011;3564;53.326;10.356;2023-03-20T01:04:24;33.63;;;22.23;;
7045;SDS011;3564;53.326;10.356;2023-03-20T01:07:00;37.17;;;22.57;;
7045;SDS011;3564;53.326;10.356;2023-03-20T01:09:26;32.40;;;20.47;;
7045;SDS011;3564;53.326;10.356;2023-03-20T01:11:52;35.67;;;21.50;;
7045;SDS011;3564;53.326;10.356;2023-03-20T01:14:17;30.67;;;20.07;;
7045;SDS011;3564;53.326;10.356;2023-03-20T01:16:43;33.00;;;20.50;;
7045;SDS011;3564;53.326;10.356;2023-03-20T01:19:10;27.20;;;18.30;;
7045;SDS011;3564;53.326;10.356;2023-03-20T01:21:37;26.67;;;18.20;;
7045;SDS011;3564;53.326;10.356;2023-03-20T01:24:03;27.43;;;18.33;;
7045;SDS011;3564;53.326;10.356;2023-03-20T01:26:41;26.67;;;17.13;;
7045;SDS011;3564;53.326;10.356;2023-03-20T01:29:19;28.30;;;18.27;;
7045;SDS011;3564;53.326;10.356;2023-03-20T01:31:46;25.13;;;16.03;;
7045;SDS011;3564;53.326;10.356;2023-03-20T01:34:13;24.87;;;16.90;;
7045;SDS011;3564;53.326;10.356;2023-03-20T01:36:47;23.57;;;16.17;;
7045;SDS011;3564;53.326;10.356;2023-03-20T01:39:14;23.17;;;15.97;;
7045;SDS011;3564;53.326;10.356;2023-03-20T01:41:42;22.37;;;15.27;;
7045;SDS011;3564;53.326;10.356;2023-03-20T01:44:19;25.53;;;16.47;;
7045;SDS011;3564;53.326;10.356;2023-03-20T01:46:51;23.90;;;16.17;;
7045;SDS011;3564;53.326;10.356;2023-03-20T01:51:43;25.37;;;15.87;;
7045;SDS011;3564;53.326;10.356;2023-03-20T01:54:12;23.07;;;15.17;;
7045;SDS011;3564;53.326;10.356;2023-03-20T01:56:46;24.20;;;16.80;;
7045;SDS011;3564;53.326;10.356;2023-03-20T01:59:21;22.97;;;15.57;;
7045;SDS011;3564;53.326;10.356;2023-03-20T02:01:53;27.23;;;17.23;;
7045;SDS011;3564;53.326;10.356;2023-03-20T02:04:20;23.57;;;16.93;;
7045;SDS011;3564;53.326;10.356;2023-03-20T02:06:55;24.77;;;16.40;;
7045;SDS011;3564;53.326;10.356;2023-03-20T02:09:21;26.93;;;16.53;;
7045;SDS011;3564;53.326;10.356;2023-03-20T02:11:46;25.73;;;16.53;;
7045;SDS011;3564;53.326;10.356;2023-03-20T02:14:13;27.37;;;17.80;;
7045;SDS011;3564;53.326;10.356;2023-03-20T02:16:39;23.87;;;16.17;;
7045;SDS011;3564;53.326;10.356;2023-03-20T02:19:06;24.70;;;15.33;;
7045;SDS011;3564;53.326;10.356;2023-03-20T02:21:57;24.10;;;16.50;;
7045;SDS011;3564;53.326;10.356;2023-03-20T02:28:18;27.10;;;17.87;;
7045;SDS011;3564;53.326;10.356;2023-03-20T02:31:14;24.13;;;16.10;;
7045;SDS011;3564;53.326;10.356;2023-03-20T02:42:40;25.30;;;16.13;;
7045;SDS011;3564;53.326;10.356;2023-03-20T02:52:59;27.30;;;16.03;;
7045;SDS011;3564;53.326;10.356;2023-03-20T02:55:52;27.13;;;16.80;;
7045;SDS011;3564;53.326;10.356;2023-03-20T02:58:39;29.17;;;17.20;;
7045;SDS011;3564;53.326;10.356;2023-03-20T03:01:16;31.70;;;17.57;;
7045;SDS011;3564;53.326;10.356;2023-03-20T03:04:07;27.63;;;16.93;;
7045;SDS011;3564;53.326;10.356;2023-03-20T03:06:37;29.77;;;17.33;;
7045;SDS011;3564;53.326;10.356;2023-03-20T03:09:11;31.03;;;17.03;;
7045;SDS011;3564;53.326;10.356;2023-03-20T03:11:47;30.27;;;18.10;;
7045;SDS011;3564;53.326;10.356;2023-03-20T03:14:33;29.47;;;17.83;;
7045;SDS011;3564;53.326;10.356;2023-03-20T03:17:06;30.33;;;17.47;;
7045;SDS011;3564;53.326;10.356;2023-03-20T03:19:35;30.67;;;18.00;;
7045;SDS011;3564;53.326;10.356;2023-03-20T03:22:05;30.63;;;18.37;;
7045;SDS011;3564;53.326;10.356;2023-03-20T03:24:33;31.40;;;18.60;;
7045;SDS011;3564;53.326;10.356;2023-03-20T03:27:01;33.57;;;19.60;;
7045;SDS011;3564;53.326;10.356;2023-03-20T03:29:32;33.13;;;19.13;;
7045;SDS011;3564;53.326;10.356;2023-03-20T03:32:01;34.27;;;18.83;;
7045;SDS011;3564;53.326;10.356;2023-03-20T03:34:30;36.43;;;21.20;;
7045;SDS011;3564;53.326;10.356;2023-03-20T03:37:00;37.73;;;21.23;;
7045;SDS011;3564;53.326;10.356;2023-03-20T03:39:40;34.50;;;19.87;;
7045;SDS011;3564;53.326;10.356;2023-03-20T03:45:11;33.57;;;20.60;;
7045;SDS011;3564;53.326;10.356;2023-03-20T03:52:48;35.83;;;20.90;;
7045;SDS011;3564;53.326;10.356;2023-03-20T03:55:21;36.33;;;20.50;;
7045;SDS011;3564;53.326;10.356;2023-03-20T03:57:56;40.10;;;21.20;;
7045;SDS011;3564;53.326;10.356;2023-03-20T04:00:26;33.53;;;20.53;;
7045;SDS011;3564;53.326;10.356;2023-03-20T04:02:53;37.17;;;20.60;;
7045;SDS011;3564;53.326;10.356;2023-03-20T04:05:21;35.10;;;21.17;;
7045;SDS011;3564;53.326;10.356;2023-03-20T04:07:52;32.43;;;19.70;;
7045;SDS011;3564;53.326;10.356;2023-03-20T04:10:22;33.53;;;21.10;;
7045;SDS011;3564;53.326;10.356;2023-03-20T04:12:47;34.37;;;19.97;;
7045;SDS011;3564;53.326;10.356;2023-03-20T04:15:15;31.53;;;19.20;;
7045;SDS011;3564;53.326;10.356;2023-03-20T04:17:41;32.07;;;19.97;;
7045;SDS011;3564;53.326;10.356;2023-03-20T04:20:07;30.80;;;18.73;;
7045;SDS011;3564;53.326;10.356;2023-03-20T04:22:35;35.60;;;20.17;;
7045;SDS011;3564;53.326;10.356;2023-03-20T04:25:01;34.93;;;19.87;;
7045;SDS011;3564;53.326;10.356;2023-03-20T04:27:28;33.73;;;20.67;;
7045;SDS011;3564;53.326;10.356;2023-03-20T04:29:53;37.83;;;20.53;;
7045;SDS011;3564;53.326;10.356;2023-03-20T04:32:19;32.80;;;20.03;;
7045;SDS011;3564;53.326;10.356;2023-03-20T04:34:45;34.67;;;19.63;;
7045;SDS011;3564;53.326;10.356;2023-03-20T04:37:10;32.83;;;18.23;;
7045;SDS011;3564;53.326;10.356;2023-03-20T04:39:36;30.83;;;17.77;;
7045;SDS011;3564;53.326;10.356;2023-03-20T04:42:02;33.00;;;18.77;;
7045;SDS011;3564;53.326;10.356;2023-03-20T04:44:30;31.80;;;18.40;;
7045;SDS011;3564;53.326;10.356;2023-03-20T04:46:56;30.93;;;17.50;;
7045;SDS011;3564;53.326;10.356;2023-03-20T04:49:22;26.47;;;16.97;;
7045;SDS011;3564;53.326;10.356;2023-03-20T04:51:47;23.50;;;15.57;;
7045;SDS011;3564;53.326;10.356;2023-03-20T04:54:13;23.27;;;14.93;;
7045;SDS011;3564;53.326;10.356;2023-03-20T04:56:38;23.47;;;14.23;;
7045;SDS011;3564;53.326;10.356;2023-03-20T04:59:04;20.53;;;13.57;;
7045;SDS011;3564;53.326;10.356;2023-03-20T05:01:30;19.47;;;12.90;;
7045;SDS011;3564;53.326;10.356;2023-03-20T05:03:55;18.27;;;12.10;;
7045;SDS011;3564;53.326;10.356;2023-03-20T05:06:26;17.07;;;10.23;;
7045;SDS011;3564;53.326;10.356;2023-03-20T05:08:52;15.40;;;9.67;;
7045;SDS011;3564;53.326;10.356;2023-03-20T05:11:18;15.23;;;9.50;;
7045;SDS011;3564;53.326;10.356;2023-03-20T05:13:44;15.43;;;9.30;;
7045;SDS011;3564;53.326;10.356;2023-03-20T05:16:10;13.77;;;8.50;;
7045;SDS011;3564;53.326;10.356;2023-03-20T05:18:36;13.87;;;8.50;;
7045;SDS011;3564;53.326;10.356;2023-03-20T05:21:02;10.20;;;7.00;;
7045;SDS011;3564;53.326;10.356;2023-03-20T05:23:28;10.90;;;7.27;;
7045;SDS011;3564;53.326;10.356;2023-03-20T05:25:54;11.63;;;6.87;;
7045;SDS011;3564;53.326;10.356;2023-03-20T05:28:20;9.17;;;6.90;;
7045;SDS011;3564;53.326;10.356;2023-03-20T05:30:46;8.50;;;6.43;;
7045;SDS011;3564;53.326;10.356;2023-03-20T05:33:11;9.77;;;6.73;;
7045;SDS011;3564;53.326;10.356;2023-03-20T05:35:37;8.63;;;5.90;;
7045;SDS011;3564;53.326;10.356;2023-03-20T05:38:03;7.67;;;5.73;;
7045;SDS011;3564;53.326;10.356;2023-03-20T05:40:30;8.77;;;5.80;;
7045;SDS011;3564;53.326;10.356;2023-03-20T05:42:55;7.50;;;4.90;;
7045;SDS011;3564;53.326;10.356;2023-03-20T05:45:21;9.07;;;5.40;;
7045;SDS011;3564;53.326;10.356;2023-03-20T05:47:47;5.83;;;4.37;;
7045;SDS011;3564;53.326;10.356;2023-03-20T05:50:13;6.43;;;4.70;;
7045;SDS011;3564;53.326;10.356;2023-03-20T05:52:38;6.07;;;4.53;;
7045;SDS011;3564;53.326;10.356;2023-03-20T05:55:04;6.93;;;4.53;;
7045;SDS011;3564;53.326;10.356;2023-03-20T05:57:30;8.93;;;4.80;;
7045;SDS011;3564;53.326;10.356;2023-03-20T05:59:56;6.80;;;4.73;;
7045;SDS011;3564;53.326;10.356;2023-03-20T06:02:21;6.90;;;4.37;;
7045;SDS011;3564;53.326;10.356;2023-03-20T06:04:47;6.17;;;4.33;;
7045;SDS011;3564;53.326;10.356;2023-03-20T06:07:13;6.23;;;3.80;;
7045;SDS011;3564;53.326;10.356;2023-03-20T06:09:38;5.93;;;3.63;;
7045;SDS011;3564;53.326;10.356;2023-03-20T06:12:04;4.83;;;3.90;;
7045;SDS011;3564;53.326;10.356;2023-03-20T06:14:30;5.10;;;3.37;;
7045;SDS011;3564;53.326;10.356;2023-03-20T06:16:56;4.73;;;3.30;;
7045;SDS011;3564;53.326;10.356;2023-03-20T06:19:21;5.07;;;3.27;;
7045;SDS011;3564;53.326;10.356;2023-03-20T06:21:47;6.27;;;4.13;;
7045;SDS011;3564;53.326;10.356;2023-03-20T06:24:14;4.37;;;3.33;;
7045;SDS011;3564;53.326;10.356;2023-03-20T06:26:40;3.73;;;3.33;;
7045;SDS011;3564;53.326;10.356;2023-03-20T06:29:05;3.93;;;3.30;;
7045;SDS011;3564;53.326;10.356;2023-03-20T06:31:31;5.50;;;3.57;;
7045;SDS011;3564;53.326;10.356;2023-03-20T06:33:56;4.97;;;3.57;;
7045;SDS011;3564;53.326;10.356;2023-03-20T06:36:22;4.23;;;3.67;;
7045;SDS011;3564;53.326;10.356;2023-03-20T06:38:48;4.30;;;3.47;;
7045;SDS011;3564;53.326;10.356;2023-03-20T06:41:13;4.10;;;3.33;;
7045;SDS011;3564;53.326;10.356;2023-03-20T06:43:39;3.27;;;2.73;;
7045;SDS011;3564;53.326;10.356;2023-03-20T06:46:07;4.37;;;2.97;;
7045;SDS011;3564;53.326;10.356;2023-03-20T06:48:33;3.43;;;2.70;;
7045;SDS011;3564;53.326;10.356;2023-03-20T06:50:58;4.10;;;3.23;;
7045;SDS011;3564;53.326;10.356;2023-03-20T06:53:25;3.30;;;2.80;;
7045;SDS011;3564;53.326;10.356;2023-03-20T06:55:51;4.50;;;3.07;;
7045;SDS011;3564;53.326;10.356;2023-03-20T06:58:18;4.00;;;2.97;;
7045;SDS011;3564;53.326;10.356;2023-03-20T07:00:44;3.20;;;2.90;;
7045;SDS011;3564;53.326;10.356;2023-03-20T07:03:10;3.33;;;2.80;;
7045;SDS011;3564;53.326;10.356;2023-03-20T07:05:36;3.93;;;2.90;;
7045;SDS011;3564;53.326;10.356;2023-03-20T07:08:03;3.93;;;2.87;;
7045;SDS011;3564;53.326;10.356;2023-03-20T07:10:29;3.53;;;2.70;;
7045;SDS011;3564;53.326;10.356;2023-03-20T07:12:55;5.73;;;3.20;;
7045;SDS011;3564;53.326;10.356;2023-03-20T07:15:21;4.23;;;3.27;;
7045;SDS011;3564;53.326;10.356;2023-03-20T07:17:47;4.03;;;2.87;;
7045;SDS011;3564;53.326;10.356;2023-03-20T07:20:12;5.27;;;3.10;;
7045;SDS011;3564;53.326;10.356;2023-03-20T07:22:38;5.20;;;3.30;;
7045;SDS011;3564;53.326;10.356;2023-03-20T07:25:08;4.53;;;3.47;;
7045;SDS011;3564;53.326;10.356;2023-03-20T07:27:34;4.50;;;3.40;;
7045;SDS011;3564;53.326;10.356;2023-03-20T07:30:00;5.47;;;2.83;;
7045;SDS011;3564;53.326;10.356;2023-03-20T07:32:26;4.33;;;3.60;;
7045;SDS011;3564;53.326;10.356;2023-03-20T07:34:52;6.13;;;3.67;;
7045;SDS011;3564;53.326;10.356;2023-03-20T07:37:17;3.73;;;3.30;;
7045;SDS011;3564;53.326;10.356;2023-03-20T07:39:43;4.80;;;3.73;;
7045;SDS011;3564;53.326;10.356;2023-03-20T07:42:09;5.43;;;3.40;;
7045;SDS011;3564;53.326;10.356;2023-03-20T07:44:35;3.40;;;3.10;;
7045;SDS011;3564;53.326;10.356;2023-03-20T07:47:00;5.80;;;3.77;;
7045;SDS011;3564;53.326;10.356;2023-03-20T07:49:26;5.00;;;3.63;;
7045;SDS011;3564;53.326;10.356;2023-03-20T07:51:51;4.57;;;3.60;;
7045;SDS011;3564;53.326;10.356;2023-03-20T07:54:20;3.87;;;3.30;;
7045;SDS011;3564;53.326;10.356;2023-03-20T07:56:47;4.33;;;3.80;;
7045;SDS011;3564;53.326;10.356;2023-03-20T07:59:14;4.43;;;3.23;;
7045;SDS011;3564;53.326;10.356;2023-03-20T08:01:40;4.83;;;3.47;;
7045;SDS011;3564;53.326;10.356;2023-03-20T08:04:06;4.43;;;3.60;;
7045;SDS011;3564;53.326;10.356;2023-03-20T08:06:32;5.77;;;3.93;;
7045;SDS011;3564;53.326;10.356;2023-03-20T08:08:57;5.97;;;3.37;;
7045;SDS011;3564;53.326;10.356;2023-03-20T08:11:23;4.60;;;3.37;;
7045;SDS011;3564;53.326;10.356;2023-03-20T08:13:49;4.13;;;3.73;;
7045;SDS011;3564;53.326;10.356;2023-03-20T08:16:14;4.67;;;3.50;;
7045;SDS011;3564;53.326;10.356;2023-03-20T08:18:40;5.57;;;3.80;;
7045;SDS011;3564;53.326;10.356;2023-03-20T08:21:06;5.57;;;3.73;;
7045;SDS011;3564;53.326;10.356;2023-03-20T08:23:33;4.33;;;3.60;;
7045;SDS011;3564;53.326;10.356;2023-03-20T08:25:58;5.67;;;4.03;;
7045;SDS011;3564;53.326;10.356;2023-03-20T08:28:24;5.53;;;4.10;;
7045;SDS011;3564;53.326;10.356;2023-03-20T08:30:50;5.50;;;4.57;;
7045;SDS011;3564;53.326;10.356;2023-03-20T08:33:16;4.70;;;4.07;;
7045;SDS011;3564;53.326;10.356;2023-03-20T08:35:42;6.67;;;4.43;;
7045;SDS011;3564;53.326;10.356;2023-03-20T08:38:09;7.73;;;4.77;;
7045;SDS011;3564;53.326;10.356;2023-03-20T08:40:39;6.87;;;4.43;;
7045;SDS011;3564;53.326;10.356;2023-03-20T08:43:06;5.47;;;4.07;;
7045;SDS011;3564;53.326;10.356;2023-03-20T08:45:32;5.30;;;4.50;;
7045;SDS011;3564;53.326;10.356;2023-03-20T08:47:57;5.37;;;4.03;;
7045;SDS011;3564;53.326;10.356;2023-03-20T08:50:23;5.93;;;4.90;;
7045;SDS011;3564;53.326;10.356;2023-03-20T08:52:49;6.03;;;4.83;;
7045;SDS011;3564;53.326;10.356;2023-03-20T08:55:15;6.20;;;5.00;;
7045;SDS011;3564;53.326;10.356;2023-03-20T08:57:41;6.47;;;4.97;;
7045;SDS011;3564;53.326;10.356;2023-03-20T09:00:08;6.77;;;4.80;;
7045;SDS011;3564;53.326;10.356;2023-03-20T09:02:36;7.00;;;4.80;;
7045;SDS011;3564;53.326;10.356;2023-03-20T09:05:02;8.63;;;5.90;;
7045;SDS011;3564;53.326;10.356;2023-03-20T09:07:28;6.93;;;5.20;;
7045;SDS011;3564;53.326;10.356;2023-03-20T09:09:53;8.40;;;5.87;;
7045;SDS011;3564;53.326;10.356;2023-03-20T09:12:19;7.37;;;6.07;;
7045;SDS011;3564;53.326;10.356;2023-03-20T09:14:45;7.97;;;5.97;;
7045;SDS011;3564;53.326;10.356;2023-03-20T09:17:11;7.60;;;6.77;;
7045;SDS011;3564;53.326;10.356;2023-03-20T09:19:36;9.23;;;6.30;;
7045;SDS011;3564;53.326;10.356;2023-03-20T09:22:04;6.87;;;6.10;;
7045;SDS011;3564;53.326;10.356;2023-03-20T09:24:30;9.27;;;6.50;;
7045;SDS011;3564;53.326;10.356;2023-03-20T09:26:57;7.30;;;6.40;;
7045;SDS011;3564;53.326;10.356;2023-03-20T09:29:22;8.67;;;6.40;;
7045;SDS011;3564;53.326;10.356;2023-03-20T09:31:52;9.30;;;6.67;;
7045;SDS011;3564;53.326;10.356;2023-03-20T09:34:18;7.60;;;6.43;;
7045;SDS011;3564;53.326;10.356;2023-03-20T09:36:44;8.33;;;7.13;;
7045;SDS011;3564;53.326;10.356;2023-03-20T09:39:09;7.97;;;6.80;;
7045;SDS011;3564;53.326;10.356;2023-03-20T09:41:35;7.63;;;5.93;;
7045;SDS011;3564;53.326;10.356;2023-03-20T09:47:08;8.93;;;6.40;;
7045;SDS011;3564;53.326;10.356;2023-03-20T09:54:41;9.07;;;5.87;;
7045;SDS011;3564;53.326;10.356;2023-03-20T09:57:15;7.20;;;5.90;;
7045;SDS011;3564;53.326;10.356;2023-03-20T09:59:46;8.33;;;6.43;;
7045;SDS011;3564;53.326;10.356;2023-03-20T10:02:13;8.73;;;6.23;;
7045;SDS011;3564;53.326;10.356;2023-03-20T10:04:48;8.17;;;6.27;;
7045;SDS011;3564;53.326;10.356;2023-03-20T10:07:18;7.73;;;6.37;;
7045;SDS011;3564;53.326;10.356;2023-03-20T10:09:44;7.90;;;6.17;;
7045;SDS011;3564;53.326;10.356;2023-03-20T10:20:33;12.63;;;6.33;;
7045;SDS011;3564;53.326;10.356;2023-03-20T10:23:05;9.93;;;5.63;;
7045;SDS011;3564;53.326;10.356;2023-03-20T10:25:39;7.23;;;5.70;;
7045;SDS011;3564;53.326;10.356;2023-03-20T10:28:13;7.97;;;6.27;;
7045;SDS011;3564;53.326;10.356;2023-03-20T10:30:48;8.43;;;6.37;;
7045;SDS011;3564;53.326;10.356;2023-03-20T10:33:36;7.60;;;5.90;;
7045;SDS011;3564;53.326;10.356;2023-03-20T10:39:05;7.57;;;5.50;;
7045;SDS011;3564;53.326;10.356;2023-03-20T10:41:37;8.23;;;5.37;;
7045;SDS011;3564;53.326;10.356;2023-03-20T10:44:09;9.97;;;5.07;;
7045;SDS011;3564;53.326;10.356;2023-03-20T10:46:43;7.57;;;4.50;;
7045;SDS011;3564;53.326;10.356;2023-03-20T10:49:13;8.67;;;5.07;;
7045;SDS011;3564;53.326;10.356;2023-03-20T10:51:55;8.67;;;5.27;;
7045;SDS011;3564;53.326;10.356;2023-03-20T10:54:26;7.60;;;4.93;;
7045;SDS011;3564;53.326;10.356;2023-03-20T10:56:55;7.73;;;4.90;;
7045;SDS011;3564;53.326;10.356;2023-03-20T10:59:28;5.93;;;4.20;;
7045;SDS011;3564;53.326;10.356;2023-03-20T11:02:14;5.03;;;4.40;;
7045;SDS011;3564;53.326;10.356;2023-03-20T11:04:41;6.47;;;4.53;;
7045;SDS011;3564;53.326;10.356;2023-03-20T11:12:48;7.10;;;5.47;;
7045;SDS011;3564;53.326;10.356;2023-03-20T11:15:21;7.07;;;4.83;;
7045;SDS011;3564;53.326;10.356;2023-03-20T11:18:04;7.17;;;4.93;;
7045;SDS011;3564;53.326;10.356;2023-03-20T11:20:37;7.47;;;5.17;;
7045;SDS011;3564;53.326;10.356;2023-03-20T11:23:18;5.87;;;4.40;;
7045;SDS011;3564;53.326;10.356;2023-03-20T11:31:14;5.67;;;4.47;;
7045;SDS011;3564;53.326;10.356;2023-03-20T11:33:44;7.27;;;4.60;;
7045;SDS011;3564;53.326;10.356;2023-03-20T11:36:19;5.90;;;4.70;;
7045;SDS011;3564;53.326;10.356;2023-03-20T11:38:47;5.67;;;4.40;;
7045;SDS011;3564;53.326;10.356;2023-03-20T11:41:27;5.80;;;4.33;;
7045;SDS011;3564;53.326;10.356;2023-03-20T11:43:53;11.73;;;4.17;;
7045;SDS011;3564;53.326;10.356;2023-03-20T11:46:20;6.93;;;4.03;;
7045;SDS011;3564;53.326;10.356;2023-03-20T11:48:47;7.03;;;4.10;;
7045;SDS011;3564;53.326;10.356;2023-03-20T11:51:31;7.80;;;4.17;;
7045;SDS011;3564;53.326;10.356;2023-03-20T11:54:00;8.80;;;4.67;;
7045;SDS011;3564;53.326;10.356;2023-03-20T11:56:30;5.77;;;4.13;;
7045;SDS011;3564;53.326;10.356;2023-03-20T12:01:29;8.40;;;3.93;;
7045;SDS011;3564;53.326;10.356;2023-03-20T12:04:16;9.03;;;4.33;;
7045;SDS011;3564;53.326;10.356;2023-03-20T12:06:57;5.73;;;3.97;;
7045;SDS011;3564;53.326;10.356;2023-03-20T12:09:41;7.03;;;5.13;;
7045;SDS011;3564;53.326;10.356;2023-03-20T12:15:24;7.13;;;4.43;;
7045;SDS011;3564;53.326;10.356;2023-03-20T12:17:55;7.27;;;4.87;;
7045;SDS011;3564;53.326;10.356;2023-03-20T12:20:56;8.50;;;4.73;;
7045;SDS011;3564;53.326;10.356;2023-03-20T12:23:46;10.63;;;4.43;;
7045;SDS011;3564;53.326;10.356;2023-03-20T12:33:41;9.33;;;4.57;;
7045;SDS011;3564;53.326;10.356;2023-03-20T12:38:53;5.50;;;4.00;;
7045;SDS011;3564;53.326;10.356;2023-03-20T12:41:29;9.23;;;4.50;;
7045;SDS011;3564;53.326;10.356;2023-03-20T12:46:38;7.83;;;4.93;;
7045;SDS011;3564;53.326;10.356;2023-03-20T12:57:21;9.27;;;4.87;;
7045;SDS011;3564;53.326;10.356;2023-03-20T13:05:15;7.07;;;4.20;;
7045;SDS011;3564;53.326;10.356;2023-03-20T13:13:55;10.90;;;5.20;;
7045;SDS011;3564;53.326;10.356;2023-03-20T13:24:39;6.30;;;5.20;;
7045;SDS011;3564;53.326;10.356;2023-03-20T13:27:32;5.93;;;5.07;;
7045;SDS011;3564;53.326;10.356;2023-03-20T13:30:42;9.30;;;4.70;;
7045;SDS011;3564;53.326;10.356;2023-03-20T13:33:22;5.63;;;5.03;;
7045;SDS011;3564;53.326;10.356;2023-03-20T13:38:59;9.77;;;5.40;;
7045;SDS011;3564;53.326;10.356;2023-03-20T13:41:38;56.70;;;40.77;;
7045;SDS011;3564;53.326;10.356;2023-03-20T13:44:04;30.07;;;21.10;;
7045;SDS011;3564;53.326;10.356;2023-03-20T13:46:43;9.10;;;5.93;;
7045;SDS011;3564;53.326;10.356;2023-03-20T13:49:52;8.77;;;4.93;;
7045;SDS011;3564;53.326;10.356;2023-03-20T13:52:44;7.83;;;4.60;;
7045;SDS011;3564;53.326;10.356;2023-03-20T13:55:58;9.40;;;4.83;;
7045;SDS011;3564;53.326;10.356;2023-03-20T13:58:58;43.63;;;31.23;;
7045;SDS011;3564;53.326;10.356;2023-03-20T14:01:59;34.37;;;26.33;;
7045;SDS011;3564;53.326;10.356;2023-03-20T14:04:34;10.43;;;6.50;;
7045;SDS011;3564;53.326;10.356;2023-03-20T14:07:00;5.73;;;4.53;;
7045;SDS011;3564;53.326;10.356;2023-03-20T14:12:09;7.37;;;4.77;;
7045;SDS011;3564;53.326;10.356;2023-03-20T14:14:42;6.20;;;3.87;;
7045;SDS011;3564;53.326;10.356;2023-03-20T14:17:22;6.83;;;4.20;;
7045;SDS011;3564;53.326;10.356;2023-03-20T14:19:53;5.40;;;4.00;;
7045;SDS011;3564;53.326;10.356;2023-03-20T14:22:21;6.83;;;4.13;;
7045;SDS011;3564;53.326;10.356;2023-03-20T14:25:14;8.23;;;4.03;;
7045;SDS011;3564;53.326;10.356;2023-03-20T14:27:55;4.80;;;3.73;;
7045;SDS011;3564;53.326;10.356;2023-03-20T14:33:20;5.10;;;3.63;;
7045;SDS011;3564;53.326;10.356;2023-03-20T14:36:14;6.90;;;4.53;;
7045;SDS011;3564;53.326;10.356;2023-03-20T14:50:35;5.30;;;3.50;;
7045;SDS011;3564;53.326;10.356;2023-03-20T14:53:19;5.73;;;3.50;;
7045;SDS011;3564;53.326;10.356;2023-03-20T15:00:53;7.57;;;3.77;;
7045;SDS011;3564;53.326;10.356;2023-03-20T15:03:19;6.77;;;3.70;;
7045;SDS011;3564;53.326;10.356;2023-03-20T15:05:46;4.70;;;3.50;;
7045;SDS011;3564;53.326;10.356;2023-03-20T15:08:27;5.93;;;4.10;;
7045;SDS011;3564;53.326;10.356;2023-03-20T15:10:56;6.47;;;3.60;;
7045;SDS011;3564;53.326;10.356;2023-03-20T15:13:28;6.37;;;4.40;;
7045;SDS011;3564;53.326;10.356;2023-03-20T15:15:56;8.60;;;4.60;;
7045;SDS011;3564;53.326;10.356;2023-03-20T15:18:27;8.07;;;4.73;;
7045;SDS011;3564;53.326;10.356;2023-03-20T15:20:56;9.50;;;5.03;;
7045;SDS011;3564;53.326;10.356;2023-03-20T15:23:22;6.40;;;4.37;;
7045;SDS011;3564;53.326;10.356;2023-03-20T15:25:50;8.47;;;4.90;;
7045;SDS011;3564;53.326;10.356;2023-03-20T15:28:20;7.53;;;5.10;;
7045;SDS011;3564;53.326;10.356;2023-03-20T15:30:48;8.07;;;5.00;;
7045;SDS011;3564;53.326;10.356;2023-03-20T15:33:25;7.23;;;4.47;;
7045;SDS011;3564;53.326;10.356;2023-03-20T15:35:57;8.33;;;4.40;;
7045;SDS011;3564;53.326;10.356;2023-03-20T15:38:32;7.53;;;4.20;;
7045;SDS011;3564;53.326;10.356;2023-03-20T15:40:59;5.13;;;4.03;;
7045;SDS011;3564;53.326;10.356;2023-03-20T15:43:28;8.17;;;4.10;;
7045;SDS011;3564;53.326;10.356;2023-03-20T15:45:55;6.37;;;4.87;;
7045;SDS011;3564;53.326;10.356;2023-03-20T15:48:23;7.67;;;4.50;;
7045;SDS011;3564;53.326;10.356;2023-03-20T15:50:57;5.53;;;4.00;;
7045;SDS011;3564;53.326;10.356;2023-03-20T15:53:28;6.33;;;4.80;;
7045;SDS011;3564;53.326;10.356;2023-03-20T15:56:04;7.00;;;4.37;;
7045;SDS011;3564;53.326;10.356;2023-03-20T15:58:30;8.90;;;5.07;;
7045;SDS011;3564;53.326;10.356;2023-03-20T16:00:56;8.93;;;4.53;;
7045;SDS011;3564;53.326;10.356;2023-03-20T16:03:24;8.73;;;4.87;;
7045;SDS011;3564;53.326;10.356;2023-03-20T16:05:51;6.53;;;4.60;;
7045;SDS011;3564;53.326;10.356;2023-03-20T16:10:56;8.90;;;5.27;;
7045;SDS011;3564;53.326;10.356;2023-03-20T16:13:38;6.73;;;4.40;;
7045;SDS011;3564;53.326;10.356;2023-03-20T16:16:05;8.77;;;4.87;;
7045;SDS011;3564;53.326;10.356;2023-03-20T16:18:37;5.70;;;4.70;;
7045;SDS011;3564;53.326;10.356;2023-03-20T16:21:23;7.30;;;4.77;;
7045;SDS011;3564;53.326;10.356;2023-03-20T16:23:54;6.97;;;4.40;;
7045;SDS011;3564;53.326;10.356;2023-03-20T16:26:22;6.90;;;4.40;;
7045;SDS011;3564;53.326;10.356;2023-03-20T16:28:54;7.70;;;4.40;;
7045;SDS011;3564;53.326;10.356;2023-03-20T16:31:29;8.07;;;4.73;;
7045;SDS011;3564;53.326;10.356;2023-03-20T16:33:58;8.80;;;4.50;;
7045;SDS011;3564;53.326;10.356;2023-03-20T16:36:29;6.43;;;4.50;;
7045;SDS011;3564;53.326;10.356;2023-03-20T16:39:01;7.63;;;4.67;;
7045;SDS011;3564;53.326;10.356;2023-03-20T16:41:35;9.33;;;4.70;;
7045;SDS011;3564;53.326;10.356;2023-03-20T16:44:06;8.20;;;4.90;;
7045;SDS011;3564;53.326;10.356;2023-03-20T16:50:02;8.07;;;5.27;;
7045;SDS011;3564;53.326;10.356;2023-03-20T16:52:29;7.43;;;5.03;;
7045;SDS011;3564;53.326;10.356;2023-03-20T16:55:01;7.47;;;4.90;;
7045;SDS011;3564;53.326;10.356;2023-03-20T16:57:27;8.50;;;4.70;;
7045;SDS011;3564;53.326;10.356;2023-03-20T17:00:04;8.17;;;5.07;;
7045;SDS011;3564;53.326;10.356;2023-03-20T17:02:36;7.37;;;5.13;;
7045;SDS011;3564;53.326;10.356;2023-03-20T17:05:09;7.37;;;4.57;;
7045;SDS011;3564;53.326;10.356;2023-03-20T17:07:37;7.77;;;4.87;;
7045;SDS011;3564;53.326;10.356;2023-03-20T17:12:41;9.37;;;4.77;;
7045;SDS011;3564;53.326;10.356;2023-03-20T17:15:15;7.23;;;4.40;;
7045;SDS011;3564;53.326;10.356;2023-03-20T17:17:42;6.80;;;4.50;;
7045;SDS011;3564;53.326;10.356;2023-03-20T17:20:17;6.97;;;4.90;;
7045;SDS011;3564;53.326;10.356;2023-03-20T17:23:01;8.00;;;5.77;;
7045;SDS011;3564;53.326;10.356;2023-03-20T17:25:26;9.30;;;4.63;;
7045;SDS011;3564;53.326;10.356;2023-03-20T17:27:52;8.13;;;4.93;;
7045;SDS011;3564;53.326;10.356;2023-03-20T17:30:19;8.13;;;4.77;;
7045;SDS011;3564;53.326;10.356;2023-03-20T17:32:49;7.00;;;4.80;;
7045;SDS011;3564;53.326;10.356;2023-03-20T17:35:15;6.80;;;4.53;;
7045;SDS011;3564;53.326;10.356;2023-03-20T17:37:41;8.60;;;4.63;;